Terminal Aerodrome Forecast
Issued by NWS Blacksburg, VA

Home | Current Version | Previous Version | Text Only | Print | Product List | Glossary On
Versions: 1 2 3 4 5 6 7 8 9 10 11 12 13 14
000
FTUS41 KRNK 280520
TAFLYH
TAF
KLYH 280520Z 2806/2906 20006KT P6SM SCT002 OVC120
      TEMPO 2807/2811 3SM BR BKN002 BKN050
     FM281200 00000KT P6SM VCSH OVC035
     FM281800 20004KT P6SM VCTS OVC040CB
     FM290100 21004KT P6SM VCSH OVC030=

USA.gov is the U.S. government's official web portal to all federal, state and local government web resources and services.